createdAt,value
2019-03-04T00:00:39.930Z,99.90
2019-03-04T00:03:10.461Z,99.90
2019-03-04T00:05:42.513Z,99.90
2019-03-04T00:08:13.211Z,99.90
2019-03-04T00:10:43.692Z,99.90
2019-03-04T00:13:14.240Z,99.90
2019-03-04T00:15:44.739Z,99.90
2019-03-04T00:18:15.966Z,99.90
2019-03-04T00:20:46.458Z,99.90
2019-03-04T00:23:16.942Z,99.90
2019-03-04T00:25:47.442Z,99.90
2019-03-04T00:28:17.900Z,99.90
2019-03-04T00:30:48.397Z,99.90
2019-03-04T00:33:18.930Z,99.90
2019-03-04T00:35:49.416Z,99.90
2019-03-04T00:38:19.920Z,99.90
2019-03-04T00:40:50.401Z,99.90
2019-03-04T00:43:20.908Z,99.90
2019-03-04T00:45:51.360Z,99.90
2019-03-04T00:48:21.866Z,99.90
2019-03-04T00:50:52.352Z,99.90
2019-03-04T00:53:22.823Z,99.90
2019-03-04T00:55:53.360Z,99.90
2019-03-04T00:58:23.934Z,99.90
2019-03-04T01:00:54.443Z,99.90
2019-03-04T01:03:24.904Z,99.90
2019-03-04T01:05:55.406Z,99.90
2019-03-04T01:08:25.934Z,99.90
2019-03-04T01:10:56.490Z,99.90
2019-03-04T01:13:27.216Z,99.90
2019-03-04T01:15:57.706Z,99.90
2019-03-04T01:18:28.167Z,99.90
2019-03-04T01:20:58.729Z,99.90
2019-03-04T01:23:29.222Z,99.90
2019-03-04T01:25:59.709Z,99.90
2019-03-04T01:28:30.178Z,99.90
2019-03-04T01:31:00.679Z,99.90
2019-03-04T01:33:31.145Z,99.90
2019-03-04T01:36:01.657Z,99.90
2019-03-04T01:38:32.121Z,99.90
2019-03-04T01:41:02.609Z,99.90
2019-03-04T01:43:33.070Z,99.90
2019-03-04T01:46:03.585Z,99.90
2019-03-04T01:48:34.036Z,99.90
2019-03-04T01:51:04.544Z,99.90
2019-03-04T01:53:35.002Z,99.90
2019-03-04T01:56:05.565Z,99.90
2019-03-04T01:58:36.080Z,99.90
2019-03-04T02:01:06.684Z,99.90
2019-03-04T02:03:37.149Z,99.90
2019-03-04T02:06:09.482Z,99.90
2019-03-04T02:08:40.102Z,99.90
2019-03-04T02:11:10.578Z,99.90
2019-03-04T02:13:41.033Z,99.90
2019-03-04T02:16:11.531Z,99.90
2019-03-04T02:18:45.079Z,99.90
2019-03-04T02:21:15.607Z,99.90
2019-03-04T02:23:47.409Z,99.90
2019-03-04T02:26:19.036Z,99.90
2019-03-04T02:28:49.498Z,99.90
2019-03-04T02:31:20.074Z,99.90
2019-03-04T02:33:50.531Z,99.90
2019-03-04T02:36:21.016Z,99.90
2019-03-04T02:38:51.485Z,99.90
2019-03-04T02:41:21.971Z,99.90
2019-03-04T02:43:52.422Z,99.90
2019-03-04T02:46:22.911Z,99.90
2019-03-04T02:48:53.386Z,99.90
2019-03-04T02:51:23.868Z,99.90
2019-03-04T02:53:54.361Z,99.90
2019-03-04T02:56:25.397Z,99.90
2019-03-04T02:58:55.877Z,99.90
2019-03-04T03:01:26.371Z,99.90
2019-03-04T03:03:56.856Z,99.90
2019-03-04T03:06:27.333Z,99.90
2019-03-04T03:08:57.856Z,99.90
2019-03-04T03:11:28.327Z,99.90
2019-03-04T03:13:58.822Z,99.90
2019-03-04T03:16:29.287Z,99.90
2019-03-04T03:18:59.823Z,99.90
2019-03-04T03:21:30.323Z,99.90
2019-03-04T03:24:00.823Z,99.90
2019-03-04T03:26:31.307Z,99.90
2019-03-04T03:29:01.804Z,99.90
2019-03-04T03:31:32.302Z,99.90
2019-03-04T03:34:02.766Z,99.90
2019-03-04T03:36:33.259Z,99.90
2019-03-04T03:39:04.558Z,99.90
2019-03-04T03:41:36.591Z,99.90
2019-03-04T03:44:08.613Z,99.90
2019-03-04T03:46:40.636Z,99.90
2019-03-04T03:49:11.131Z,99.90
2019-03-04T03:51:41.601Z,99.90
2019-03-04T03:54:12.089Z,99.90
2019-03-04T03:56:43.749Z,99.90
2019-03-04T03:59:14.966Z,99.90
2019-03-04T04:01:45.447Z,99.90
2019-03-04T04:04:16.693Z,99.90
2019-03-04T04:06:47.195Z,99.90
2019-03-04T04:09:17.665Z,99.90
2019-03-04T04:11:48.161Z,99.90
2019-03-04T04:14:18.649Z,99.90
2019-03-04T04:16:49.145Z,99.90
2019-03-04T04:19:19.601Z,99.90
2019-03-04T04:21:50.115Z,99.90
2019-03-04T04:24:20.578Z,99.90
2019-03-04T04:26:51.078Z,99.90
2019-03-04T04:29:21.559Z,99.90
2019-03-04T04:31:52.042Z,99.90
2019-03-04T04:34:22.518Z,99.90
2019-03-04T04:36:55.859Z,99.90
2019-03-04T04:39:26.316Z,99.90
2019-03-04T04:41:56.806Z,99.90
2019-03-04T04:44:27.272Z,99.90
2019-03-04T04:46:57.844Z,99.90
2019-03-04T04:49:28.300Z,99.90
2019-03-04T04:51:58.799Z,99.90
2019-03-04T04:54:29.301Z,99.90
2019-03-04T04:56:59.769Z,99.90
2019-03-04T04:59:32.139Z,99.90
2019-03-04T05:02:03.923Z,99.90
2019-03-04T05:04:35.672Z,99.90
2019-03-04T05:07:06.201Z,99.90
2019-03-04T05:09:57.354Z,99.90
2019-03-04T05:12:27.817Z,99.90
2019-03-04T05:14:58.301Z,99.90
2019-03-04T05:17:28.785Z,99.90
2019-03-04T05:19:59.268Z,99.90
2019-03-04T05:22:29.737Z,99.90
2019-03-04T05:25:00.356Z,99.90
2019-03-04T05:27:30.801Z,99.90
2019-03-04T05:30:01.302Z,99.90
2019-03-04T05:32:31.767Z,99.90
2019-03-04T05:35:02.254Z,99.90
2019-03-04T05:37:32.735Z,99.90
2019-03-04T05:40:03.693Z,99.90
2019-03-04T05:42:34.235Z,99.90
2019-03-04T05:45:07.393Z,99.90
2019-03-04T05:47:37.848Z,99.90
2019-03-04T05:50:12.522Z,99.90
2019-03-04T05:52:42.983Z,99.90
2019-03-04T05:55:15.681Z,99.90
2019-03-04T05:57:46.622Z,99.90
2019-03-04T06:00:25.503Z,99.90
2019-03-04T06:03:06.440Z,99.90
2019-03-04T06:05:36.921Z,99.90
2019-03-04T06:08:11.712Z,99.90
2019-03-04T06:10:42.210Z,99.90
2019-03-04T06:13:12.695Z,99.90
2019-03-04T06:15:45.062Z,99.90
2019-03-04T06:18:15.587Z,99.90
2019-03-04T06:20:47.952Z,99.90
2019-03-04T06:23:18.414Z,99.90
2019-03-04T06:25:48.900Z,99.90
2019-03-04T06:28:20.910Z,99.90
2019-03-04T06:30:51.403Z,99.90
2019-03-04T06:33:23.509Z,99.90
2019-03-04T06:35:54.018Z,99.90
2019-03-04T06:38:24.488Z,99.90
2019-03-04T06:40:56.126Z,99.90
2019-03-04T06:43:26.604Z,99.90
2019-03-04T06:45:57.702Z,99.90
2019-03-04T06:48:28.194Z,99.90
2019-03-04T06:50:58.656Z,99.90
2019-03-04T06:53:33.867Z,99.90
2019-03-04T06:56:25.207Z,99.90
2019-03-04T06:59:08.891Z,99.90
2019-03-04T07:01:44.103Z,99.90
2019-03-04T07:04:31.149Z,99.90
2019-03-04T07:07:01.646Z,99.90
2019-03-04T07:09:32.121Z,99.90
2019-03-04T07:12:02.615Z,99.90
2019-03-04T07:14:33.074Z,99.90
2019-03-04T07:17:03.572Z,99.90
2019-03-04T07:19:34.027Z,99.90
2019-03-04T07:22:04.520Z,99.90
2019-03-04T07:24:35.069Z,99.90
2019-03-04T07:27:05.815Z,99.90
2019-03-04T07:29:37.085Z,99.90
2019-03-04T07:32:07.626Z,99.90
2019-03-04T07:34:38.233Z,99.90
2019-03-04T07:37:09.765Z,99.90
2019-03-04T07:39:40.276Z,99.90
2019-03-04T07:42:10.766Z,99.90
2019-03-04T07:44:41.247Z,99.90
2019-03-04T07:47:11.740Z,99.90
2019-03-04T07:49:43.605Z,99.90
2019-03-04T07:52:14.074Z,99.90
2019-03-04T07:54:44.562Z,99.90
2019-03-04T07:57:15.049Z,99.90
2019-03-04T07:59:45.549Z,99.90
2019-03-04T08:02:16.161Z,99.90
2019-03-04T08:04:59.715Z,99.90
2019-03-04T08:07:45.711Z,99.90
2019-03-04T08:10:57.766Z,99.90
2019-03-04T08:13:51.386Z,99.90
2019-03-04T08:16:21.851Z,99.90
2019-03-04T08:18:52.336Z,99.90
2019-03-04T08:21:22.832Z,99.90
2019-03-04T08:23:53.596Z,99.90
2019-03-04T08:26:25.705Z,99.90
2019-03-04T08:28:58.768Z,99.90
2019-03-04T08:31:29.397Z,99.90
2019-03-04T08:34:01.502Z,99.90
2019-03-04T08:36:32.024Z,99.90
2019-03-04T08:39:02.655Z,99.90
2019-03-04T08:41:35.698Z,99.90
2019-03-04T08:44:06.249Z,99.90
2019-03-04T08:46:38.039Z,99.90
2019-03-04T08:49:10.652Z,99.90
2019-03-04T08:51:42.687Z,99.90
2019-03-04T08:54:13.143Z,99.90
2019-03-04T08:56:43.635Z,99.90
2019-03-04T08:59:14.106Z,99.90
2019-03-04T09:01:45.571Z,99.90
2019-03-04T09:04:17.570Z,99.90
2019-03-04T09:06:48.067Z,99.90
2019-03-04T09:09:18.815Z,99.90
2019-03-04T09:11:49.429Z,99.90
2019-03-04T09:14:20.493Z,99.90
2019-03-04T09:16:50.966Z,99.90
2019-03-04T09:19:22.042Z,99.90
2019-03-04T09:21:53.076Z,99.90
2019-03-04T09:24:23.590Z,99.90
2019-03-04T09:26:55.265Z,99.90
2019-03-04T09:29:29.070Z,99.90
2019-03-04T09:32:00.100Z,99.40
2019-03-04T09:34:30.578Z,98.70
2019-03-04T09:37:03.607Z,98.30
2019-03-04T09:39:34.104Z,97.50
2019-03-04T09:42:07.265Z,97.20
2019-03-04T09:44:37.755Z,96.60
2019-03-04T09:47:08.218Z,96.10
2019-03-04T09:49:38.712Z,95.70
2019-03-04T09:52:09.842Z,95.00
2019-03-04T09:54:41.507Z,93.70
2019-03-04T09:57:13.166Z,93.20
2019-03-04T09:59:43.663Z,93.30
2019-03-04T10:02:16.092Z,92.60
2019-03-04T10:05:21.532Z,92.10
2019-03-04T10:07:59.552Z,92.00
2019-03-04T10:11:01.244Z,91.80
2019-03-04T10:14:01.841Z,90.80
2019-03-04T10:16:43.818Z,90.40
2019-03-04T10:19:39.523Z,89.80
2019-03-04T10:22:24.413Z,87.60
2019-03-04T10:25:36.376Z,84.70
2019-03-04T10:28:44.538Z,83.50
2019-03-04T10:31:25.466Z,84.10
2019-03-04T10:34:27.765Z,81.40
2019-03-04T10:37:10.093Z,81.50
2019-03-04T10:40:18.259Z,78.60
2019-03-04T10:43:12.706Z,75.50
2019-03-04T10:45:56.859Z,72.80
2019-03-04T10:48:27.361Z,71.40
2019-03-04T10:50:59.026Z,69.90
2019-03-04T10:53:29.539Z,68.70
2019-03-04T10:56:00.008Z,70.50
2019-03-04T10:58:30.530Z,71.00
2019-03-04T11:01:01.520Z,68.80
2019-03-04T11:03:32.020Z,69.00
2019-03-04T11:06:03.537Z,67.80
2019-03-04T11:08:34.055Z,66.70
2019-03-04T11:11:04.681Z,61.60
2019-03-04T11:13:35.949Z,63.20
2019-03-04T11:16:06.414Z,61.60
2019-03-04T11:18:37.010Z,61.30
2019-03-04T11:21:07.657Z,61.70
2019-03-04T11:23:38.159Z,60.50
2019-03-04T11:26:08.704Z,62.00
2019-03-04T11:28:39.307Z,59.40
2019-03-04T11:31:09.767Z,65.40
2019-03-04T11:33:40.263Z,56.00
2019-03-04T11:36:10.744Z,54.00
2019-03-04T11:38:48.497Z,52.50
2019-03-04T11:41:22.269Z,51.60
2019-03-04T11:43:52.773Z,52.00
2019-03-04T11:46:24.266Z,49.90
2019-03-04T11:48:54.725Z,48.40
2019-03-04T11:51:26.861Z,46.70
2019-03-04T11:53:57.345Z,45.40
2019-03-04T11:56:27.846Z,43.90
2019-03-04T11:58:59.380Z,43.70
2019-03-04T12:01:34.599Z,43.00
2019-03-04T12:04:05.202Z,42.30
2019-03-04T12:06:37.256Z,42.30
2019-03-04T12:09:11.461Z,42.00
2019-03-04T12:11:42.039Z,41.70
2019-03-04T12:14:12.523Z,42.90
2019-03-04T12:16:43.083Z,43.10
2019-03-04T12:19:15.986Z,44.80
2019-03-04T12:21:46.498Z,44.00
2019-03-04T12:24:16.985Z,43.80
2019-03-04T12:26:47.736Z,42.70
2019-03-04T12:29:18.239Z,42.10
2019-03-04T12:31:50.358Z,41.60
2019-03-04T12:34:24.931Z,41.40
2019-03-04T12:36:55.603Z,42.40
2019-03-04T12:39:26.101Z,41.50
2019-03-04T12:41:56.610Z,41.10
2019-03-04T12:44:27.670Z,39.90
2019-03-04T12:46:58.134Z,40.50
2019-03-04T12:49:28.631Z,40.70
2019-03-04T12:51:59.111Z,41.80
2019-03-04T12:54:29.595Z,41.60
2019-03-04T12:57:00.059Z,40.70
2019-03-04T12:59:30.555Z,40.80
2019-03-04T13:02:01.096Z,40.50
2019-03-04T13:04:31.852Z,40.90
2019-03-04T13:07:02.311Z,40.80
2019-03-04T13:09:33.284Z,40.60
2019-03-04T13:12:03.752Z,41.00
2019-03-04T13:14:34.253Z,40.10
2019-03-04T13:17:04.707Z,40.10
2019-03-04T13:19:35.222Z,40.10
2019-03-04T13:22:08.794Z,40.50
2019-03-04T13:24:38.794Z,41.00
2019-03-04T13:27:09.263Z,41.50
2019-03-04T13:29:39.796Z,42.40
2019-03-04T13:32:10.410Z,42.40
2019-03-04T13:34:40.916Z,43.00
2019-03-04T13:37:11.455Z,43.90
2019-03-04T13:39:41.945Z,44.00
2019-03-04T13:42:12.464Z,44.40
2019-03-04T13:44:43.041Z,44.80
2019-03-04T13:47:13.516Z,44.80
2019-03-04T13:49:44.479Z,45.50
2019-03-04T13:52:15.053Z,45.80
2019-03-04T13:54:45.514Z,46.00
2019-03-04T13:57:16.012Z,46.40
2019-03-04T13:59:46.468Z,46.50
2019-03-04T14:02:17.814Z,46.50
2019-03-04T14:04:49.351Z,46.90
2019-03-04T14:07:19.824Z,47.50
2019-03-04T14:09:50.318Z,48.00
2019-03-04T14:12:22.853Z,48.10
2019-03-04T14:14:53.444Z,48.10
2019-03-04T14:17:23.920Z,48.50
2019-03-04T14:19:55.117Z,48.40
2019-03-04T14:22:25.556Z,49.00
2019-03-04T14:24:56.631Z,49.00
2019-03-04T14:27:28.635Z,48.80
2019-03-04T14:30:00.473Z,48.80
2019-03-04T14:32:32.064Z,49.40
2019-03-04T14:35:02.552Z,49.90
2019-03-04T14:37:33.047Z,49.30
2019-03-04T14:40:03.814Z,49.90
2019-03-04T14:42:34.330Z,50.30
2019-03-04T14:45:09.787Z,50.40
2019-03-04T14:47:40.940Z,50.70
2019-03-04T14:50:20.644Z,51.10
2019-03-04T14:52:51.486Z,51.50
2019-03-04T14:55:32.403Z,51.00
2019-03-04T14:58:05.356Z,51.40
2019-03-04T15:00:44.238Z,52.10
2019-03-04T15:03:23.047Z,51.60
2019-03-04T15:05:48.699Z,51.40
2019-03-04T15:08:19.286Z,51.40
2019-03-04T15:10:49.849Z,51.40
2019-03-04T15:13:21.902Z,51.00
2019-03-04T15:16:01.196Z,51.10
2019-03-04T15:18:24.576Z,50.70
2019-03-04T15:20:55.084Z,59.80
2019-03-04T15:23:25.550Z,55.60
2019-03-04T15:25:56.186Z,54.50
2019-03-04T15:28:27.398Z,53.80
2019-03-04T15:31:06.041Z,53.30
2019-03-04T15:33:36.514Z,55.20
2019-03-04T15:36:09.986Z,57.10
2019-03-04T15:38:41.612Z,57.30
2019-03-04T15:41:12.253Z,54.60
2019-03-04T15:43:42.726Z,55.60
2019-03-04T15:46:13.399Z,57.60
2019-03-04T15:48:43.942Z,56.80
2019-03-04T15:51:14.454Z,55.70
2019-03-04T15:53:46.583Z,56.80
2019-03-04T15:56:19.952Z,58.10
2019-03-04T15:58:51.834Z,60.10
2019-03-04T16:01:22.413Z,57.50
2019-03-04T16:03:53.054Z,57.80
2019-03-04T16:06:23.611Z,58.30
2019-03-04T16:08:54.120Z,58.30
2019-03-04T16:11:25.420Z,58.40
2019-03-04T16:13:56.300Z,59.80
2019-03-04T16:16:28.107Z,60.00
2019-03-04T16:18:58.601Z,60.90
2019-03-04T16:21:29.104Z,60.90
2019-03-04T16:23:59.604Z,62.20
2019-03-04T16:26:30.089Z,65.50
2019-03-04T16:29:02.140Z,64.00
2019-03-04T16:31:32.605Z,63.60
2019-03-04T16:34:04.741Z,63.80
2019-03-04T16:36:35.226Z,65.50
2019-03-04T16:39:08.393Z,67.70
2019-03-04T16:41:39.522Z,70.40
2019-03-04T16:44:10.023Z,69.00
2019-03-04T16:46:40.524Z,74.20
2019-03-04T16:49:11.001Z,76.40
2019-03-04T16:51:42.903Z,77.70
2019-03-04T16:54:14.165Z,80.10
2019-03-04T16:56:46.213Z,80.20
2019-03-04T16:59:16.709Z,80.80
2019-03-04T17:01:47.292Z,79.40
2019-03-04T17:04:22.936Z,80.50
2019-03-04T17:06:54.729Z,81.10
2019-03-04T17:09:25.942Z,84.50
2019-03-04T17:11:56.430Z,85.90
2019-03-04T17:14:26.973Z,85.80
2019-03-04T17:16:57.477Z,87.40
2019-03-04T17:19:27.954Z,87.90
2019-03-04T17:21:58.469Z,86.50
2019-03-04T17:24:29.008Z,87.30
2019-03-04T17:26:59.508Z,88.00
2019-03-04T17:29:33.025Z,88.70
2019-03-04T17:32:06.425Z,90.20
2019-03-04T17:34:37.665Z,90.60
2019-03-04T17:37:08.186Z,90.90
2019-03-04T17:39:38.647Z,90.90
2019-03-04T17:42:09.169Z,91.00
2019-03-04T17:44:40.871Z,90.90
2019-03-04T17:47:14.297Z,91.20
2019-03-04T17:49:47.758Z,91.60
2019-03-04T17:52:19.834Z,91.60
2019-03-04T17:54:51.821Z,91.60
2019-03-04T17:57:22.320Z,91.70
2019-03-04T17:59:54.438Z,91.40
2019-03-04T18:02:24.935Z,91.20
2019-03-04T18:04:55.403Z,91.30
2019-03-04T18:07:27.544Z,91.50
2019-03-04T18:09:58.038Z,91.60
2019-03-04T18:12:28.502Z,91.60
2019-03-04T18:14:58.993Z,92.20
2019-03-04T18:17:29.522Z,92.30
2019-03-04T18:20:01.814Z,92.60
2019-03-04T18:22:32.345Z,92.50
2019-03-04T18:25:03.007Z,92.60
2019-03-04T18:27:33.534Z,92.80
2019-03-04T18:30:52.719Z,92.80
2019-03-04T18:34:03.707Z,92.80
2019-03-04T18:37:28.673Z,93.20
2019-03-04T18:40:46.175Z,93.40
2019-03-04T18:43:27.152Z,93.60
2019-03-04T18:46:19.826Z,93.60
2019-03-04T18:49:00.876Z,93.50
2019-03-04T18:51:31.496Z,93.50
2019-03-04T18:54:05.656Z,93.60
2019-03-04T18:56:36.228Z,93.60
2019-03-04T18:59:08.010Z,93.60
2019-03-04T19:01:38.607Z,93.50
2019-03-04T19:04:10.198Z,93.60
2019-03-04T19:06:40.754Z,93.60
2019-03-04T19:09:11.311Z,93.30
2019-03-04T19:11:42.090Z,93.30
2019-03-04T19:14:13.350Z,93.30
2019-03-04T19:16:43.895Z,93.30
2019-03-04T19:19:14.400Z,93.40
2019-03-04T19:21:44.874Z,93.50
2019-03-04T19:24:15.414Z,93.60
2019-03-04T19:26:45.895Z,93.60
2019-03-04T19:29:16.426Z,93.60
2019-03-04T19:31:46.897Z,93.70
2019-03-04T19:34:18.049Z,93.60
2019-03-04T19:36:48.536Z,93.80
2019-03-04T19:39:20.776Z,94.10
2019-03-04T19:41:54.750Z,94.30
2019-03-04T19:44:25.257Z,94.30
2019-03-04T19:46:56.391Z,94.60
2019-03-04T19:49:26.869Z,94.20
2019-03-04T19:51:57.365Z,94.10
2019-03-04T19:54:27.931Z,94.20
2019-03-04T19:56:58.573Z,94.10
2019-03-04T19:59:29.037Z,93.90
2019-03-04T20:01:59.598Z,93.80
2019-03-04T20:04:30.083Z,94.00
2019-03-04T20:07:01.407Z,94.20
2019-03-04T20:09:33.479Z,94.10
2019-03-04T20:12:06.949Z,94.20
2019-03-04T20:14:37.414Z,94.40
2019-03-04T20:17:07.976Z,94.90
2019-03-04T20:19:38.466Z,94.60
2019-03-04T20:22:08.924Z,93.60
2019-03-04T20:24:39.413Z,93.00
2019-03-04T20:27:09.881Z,91.70
2019-03-04T20:29:40.360Z,92.20
2019-03-04T20:32:11.984Z,90.10
2019-03-04T20:34:42.479Z,90.20
2019-03-04T20:37:14.657Z,91.40
2019-03-04T20:39:45.136Z,92.60
2019-03-04T20:42:15.640Z,94.00
2019-03-04T20:44:47.755Z,95.40
2019-03-04T20:47:19.221Z,96.70
2019-03-04T20:49:50.147Z,97.30
2019-03-04T20:52:20.658Z,97.30
2019-03-04T20:54:51.776Z,98.00
2019-03-04T20:57:23.713Z,98.40
2019-03-04T20:59:54.151Z,98.00
2019-03-04T21:02:27.269Z,97.50
2019-03-04T21:04:58.395Z,96.40
2019-03-04T21:07:28.859Z,96.50
2019-03-04T21:10:00.862Z,96.90
2019-03-04T21:12:31.350Z,97.60
2019-03-04T21:15:01.798Z,96.50
2019-03-04T21:17:32.343Z,97.40
2019-03-04T21:20:02.866Z,97.00
2019-03-04T21:22:34.815Z,96.30
2019-03-04T21:25:08.939Z,96.90
2019-03-04T21:27:41.002Z,96.80
2019-03-04T21:30:32.899Z,96.70
2019-03-04T21:33:05.307Z,96.80
2019-03-04T21:36:15.257Z,96.50
2019-03-04T21:38:44.824Z,96.90
2019-03-04T21:41:31.041Z,97.30
2019-03-04T21:44:22.385Z,97.90
2019-03-04T21:47:15.318Z,98.00
2019-03-04T21:49:49.824Z,97.70
2019-03-04T21:52:35.068Z,98.00
2019-03-04T21:55:12.815Z,98.50
2019-03-04T21:57:48.408Z,98.50
2019-03-04T22:00:27.139Z,98.50
2019-03-04T22:03:13.018Z,98.30
2019-03-04T22:05:50.104Z,98.30
2019-03-04T22:08:15.927Z,99.10
2019-03-04T22:10:46.501Z,99.60
2019-03-04T22:13:17.258Z,99.40
2019-03-04T22:15:50.153Z,99.20
2019-03-04T22:18:20.753Z,99.80
2019-03-04T22:20:51.318Z,99.90
2019-03-04T22:23:21.863Z,99.90
2019-03-04T22:26:01.495Z,99.90
2019-03-04T22:28:26.102Z,99.90
2019-03-04T22:30:56.563Z,99.90
2019-03-04T22:33:27.183Z,99.90
2019-03-04T22:35:57.679Z,99.90
2019-03-04T22:38:28.175Z,99.90
2019-03-04T22:40:58.654Z,99.90
2019-03-04T22:43:29.111Z,99.90
2019-03-04T22:45:59.597Z,99.90
2019-03-04T22:48:31.421Z,99.90
2019-03-04T22:51:02.038Z,99.90
2019-03-04T22:53:33.545Z,99.90
2019-03-04T22:56:04.141Z,99.90
2019-03-04T22:58:36.160Z,99.90
2019-03-04T23:01:30.383Z,99.90
2019-03-04T23:04:11.307Z,99.90
2019-03-04T23:07:10.072Z,99.90
2019-03-04T23:09:54.631Z,99.90
2019-03-04T23:12:32.941Z,99.90
2019-03-04T23:15:05.061Z,99.90
2019-03-04T23:17:35.529Z,99.90
2019-03-04T23:20:07.953Z,99.90
2019-03-04T23:22:38.421Z,99.90
2019-03-04T23:25:13.638Z,99.90
2019-03-04T23:27:44.091Z,99.90
2019-03-04T23:30:16.406Z,99.90
2019-03-04T23:32:47.093Z,99.90
2019-03-04T23:35:17.581Z,99.90
2019-03-04T23:37:48.110Z,99.90
2019-03-04T23:40:19.378Z,99.90
2019-03-04T23:42:50.928Z,99.90
2019-03-04T23:45:24.075Z,99.90
2019-03-04T23:47:54.600Z,99.90
2019-03-04T23:50:25.694Z,99.90
2019-03-04T23:52:56.170Z,99.90
2019-03-04T23:55:26.619Z,99.90
2019-03-04T23:57:57.175Z,99.90
